createdAt,value
2022-10-10T00:01:32.058Z,5.43
2022-10-10T00:04:17.082Z,6.53
2022-10-10T00:07:03.778Z,4.18
2022-10-10T00:09:49.088Z,5.38
2022-10-10T00:12:34.336Z,6.13
2022-10-10T00:15:19.707Z,4.10
2022-10-10T00:18:05.091Z,6.28
2022-10-10T00:20:52.339Z,4.03
2022-10-10T00:23:38.152Z,4.22
2022-10-10T00:26:23.527Z,5.30
2022-10-10T00:29:09.060Z,5.97
2022-10-10T00:31:54.470Z,5.13
2022-10-10T00:34:39.835Z,4.32
2022-10-10T00:37:25.280Z,5.18
2022-10-10T00:40:12.034Z,6.28
2022-10-10T00:42:57.290Z,7.93
2022-10-10T00:45:45.073Z,4.55
2022-10-10T00:48:41.572Z,3.92
2022-10-10T00:51:27.033Z,5.10
2022-10-10T00:54:13.935Z,3.03
2022-10-10T00:57:05.795Z,4.15
2022-10-10T00:59:53.310Z,4.28
2022-10-10T01:02:38.790Z,6.35
2022-10-10T01:05:24.880Z,5.85
2022-10-10T01:08:10.546Z,5.32
2022-10-10T01:11:23.129Z,5.03
2022-10-10T01:14:34.983Z,4.40
2022-10-10T01:17:49.756Z,5.60
2022-10-10T01:20:56.092Z,4.75
2022-10-10T01:24:00.994Z,4.57
2022-10-10T01:27:08.269Z,4.80
2022-10-10T01:29:57.890Z,5.22
2022-10-10T01:33:03.894Z,11.40
2022-10-10T01:36:03.884Z,8.32
2022-10-10T01:39:13.398Z,5.38
2022-10-10T01:42:23.129Z,4.38
2022-10-10T01:45:09.025Z,4.32
2022-10-10T01:47:57.699Z,6.95
2022-10-10T01:51:13.298Z,6.95
2022-10-10T01:54:10.576Z,5.35
2022-10-10T01:57:10.658Z,5.15
2022-10-10T02:00:09.301Z,3.70
2022-10-10T02:03:17.720Z,5.38
2022-10-10T02:06:09.685Z,4.68
2022-10-10T02:09:02.299Z,5.32
2022-10-10T02:11:48.149Z,3.60
2022-10-10T02:14:44.217Z,6.10
2022-10-10T02:17:31.092Z,4.25
2022-10-10T02:20:20.671Z,3.67
2022-10-10T02:23:07.109Z,4.47
2022-10-10T02:25:56.258Z,5.53
2022-10-10T02:28:59.726Z,5.03
2022-10-10T02:31:53.294Z,6.13
2022-10-10T02:34:47.877Z,5.38
2022-10-10T02:37:34.161Z,5.40
2022-10-10T02:40:24.569Z,6.03
2022-10-10T02:43:11.583Z,4.57
2022-10-10T02:45:56.872Z,4.45
2022-10-10T02:48:43.111Z,4.00
2022-10-10T02:51:30.395Z,5.22
2022-10-10T02:54:15.888Z,4.57
2022-10-10T02:57:01.265Z,4.82
2022-10-10T02:59:46.560Z,6.18
2022-10-10T03:02:32.133Z,8.45
2022-10-10T03:05:17.665Z,5.90
2022-10-10T03:08:04.339Z,3.97
2022-10-10T03:10:59.869Z,4.50
2022-10-10T03:13:45.034Z,4.00
2022-10-10T03:16:30.356Z,4.80
2022-10-10T03:19:15.705Z,3.75
2022-10-10T03:22:01.156Z,4.70
2022-10-10T03:24:46.501Z,3.88
2022-10-10T03:27:31.873Z,3.85
2022-10-10T03:30:17.211Z,8.18
2022-10-10T03:33:03.223Z,3.10
2022-10-10T03:35:49.111Z,5.00
2022-10-10T03:38:34.379Z,6.25
2022-10-10T03:41:19.456Z,5.68
2022-10-10T03:44:04.770Z,7.28
2022-10-10T03:46:50.104Z,4.55
2022-10-10T03:49:35.526Z,6.53
2022-10-10T03:52:21.877Z,6.47
2022-10-10T03:55:07.676Z,4.43
2022-10-10T03:57:52.676Z,4.63
2022-10-10T04:00:38.578Z,4.63
2022-10-10T04:03:24.633Z,6.80
2022-10-10T04:06:09.685Z,3.58
2022-10-10T04:08:55.250Z,6.60
2022-10-10T04:11:40.858Z,5.43
2022-10-10T04:14:26.123Z,5.10
2022-10-10T04:17:11.654Z,3.15
2022-10-10T04:19:56.969Z,5.88
2022-10-10T04:22:43.847Z,4.07
2022-10-10T04:25:28.929Z,6.05
2022-10-10T04:28:15.901Z,5.25
2022-10-10T04:31:01.487Z,4.13
2022-10-10T04:33:46.772Z,5.60
2022-10-10T04:36:32.240Z,6.65
2022-10-10T04:39:17.495Z,4.30
2022-10-10T04:42:02.843Z,4.72
2022-10-10T04:44:48.418Z,5.72
2022-10-10T04:47:33.813Z,4.43
2022-10-10T04:50:19.400Z,7.30
2022-10-10T04:53:04.635Z,5.60
2022-10-10T04:55:50.165Z,2.75
2022-10-10T04:58:35.653Z,7.82
2022-10-10T05:01:21.167Z,4.30
2022-10-10T05:04:06.482Z,4.88
2022-10-10T05:06:51.825Z,5.80
2022-10-10T05:09:37.237Z,5.95
2022-10-10T05:12:22.576Z,7.82
2022-10-10T05:15:08.172Z,7.50
2022-10-10T05:17:53.719Z,3.28
2022-10-10T05:20:39.063Z,4.47
2022-10-10T05:23:24.461Z,5.65
2022-10-10T05:26:10.195Z,4.10
2022-10-10T05:28:55.656Z,4.75
2022-10-10T05:31:41.085Z,3.92
2022-10-10T05:34:26.522Z,4.45
2022-10-10T05:37:12.092Z,8.88
2022-10-10T05:39:57.330Z,3.95
2022-10-10T05:42:42.755Z,4.50
2022-10-10T05:45:28.185Z,5.38
2022-10-10T05:48:13.543Z,3.47
2022-10-10T05:51:00.077Z,5.32
2022-10-10T05:53:45.630Z,6.45
2022-10-10T05:56:30.793Z,4.63
2022-10-10T05:59:16.248Z,4.45
2022-10-10T06:02:01.743Z,7.88
2022-10-10T06:04:47.163Z,5.47
2022-10-10T06:07:59.024Z,5.05
2022-10-10T06:10:43.608Z,10.00
2022-10-10T06:13:28.517Z,5.28
2022-10-10T06:16:13.932Z,5.47
2022-10-10T06:18:59.195Z,7.05
2022-10-10T06:21:44.687Z,13.07
2022-10-10T06:24:30.092Z,4.50
2022-10-10T06:27:15.490Z,6.40
2022-10-10T06:30:00.992Z,6.97
2022-10-10T06:32:46.307Z,7.05
2022-10-10T06:35:31.817Z,5.38
2022-10-10T06:38:17.287Z,8.75
2022-10-10T06:41:04.366Z,5.15
2022-10-10T06:43:51.589Z,4.38
2022-10-10T06:46:37.451Z,6.15
2022-10-10T06:49:22.547Z,6.03
2022-10-10T06:52:07.974Z,7.47
2022-10-10T06:54:53.343Z,4.88
2022-10-10T06:57:38.839Z,5.22
2022-10-10T07:00:24.523Z,5.03
2022-10-10T07:03:12.669Z,5.80
2022-10-10T07:06:00.406Z,4.68
2022-10-10T07:08:45.767Z,6.93
2022-10-10T07:11:31.324Z,5.68
2022-10-10T07:14:16.730Z,10.75
2022-10-10T07:17:03.103Z,10.45
2022-10-10T07:19:48.547Z,7.65
2022-10-10T07:22:34.122Z,5.60
2022-10-10T07:25:19.522Z,9.40
2022-10-10T07:28:06.131Z,6.70
2022-10-10T07:30:51.503Z,6.53
2022-10-10T07:33:40.480Z,4.97
2022-10-10T07:36:25.962Z,6.05
2022-10-10T07:39:16.336Z,5.65
2022-10-10T07:42:02.163Z,4.75
2022-10-10T07:44:47.593Z,11.43
2022-10-10T07:47:32.961Z,5.65
2022-10-10T07:50:18.638Z,7.60
2022-10-10T07:53:04.068Z,7.85
2022-10-10T07:55:49.167Z,9.52
2022-10-10T07:58:36.169Z,8.35
2022-10-10T08:01:21.608Z,4.15
2022-10-10T08:04:06.908Z,5.78
2022-10-10T08:06:52.269Z,4.28
2022-10-10T08:09:37.489Z,4.93
2022-10-10T08:12:22.965Z,6.72
2022-10-10T08:15:09.166Z,7.13
2022-10-10T08:17:54.685Z,8.00
2022-10-10T08:20:39.926Z,9.75
2022-10-10T08:23:25.407Z,7.68
2022-10-10T08:26:13.450Z,7.45
2022-10-10T08:28:58.785Z,5.68
2022-10-10T08:31:44.218Z,5.50
2022-10-10T08:34:29.736Z,4.90
2022-10-10T08:37:15.096Z,5.88
2022-10-10T08:40:00.604Z,5.10
2022-10-10T08:42:53.081Z,5.05
2022-10-10T08:45:38.974Z,5.35
2022-10-10T08:48:31.136Z,7.63
2022-10-10T08:51:31.053Z,8.13
2022-10-10T08:54:17.864Z,5.40
2022-10-10T08:57:06.990Z,7.05
2022-10-10T08:59:55.702Z,6.68
2022-10-10T09:02:54.103Z,5.75
2022-10-10T09:06:04.062Z,7.32
2022-10-10T09:09:20.279Z,4.35
2022-10-10T09:12:22.105Z,11.27
2022-10-10T09:15:20.738Z,5.88
2022-10-10T09:18:27.881Z,5.10
2022-10-10T09:21:39.794Z,7.03
2022-10-10T09:24:42.713Z,4.85
2022-10-10T09:27:34.772Z,5.25
2022-10-10T09:30:21.413Z,8.60
2022-10-10T09:33:23.433Z,6.80
2022-10-10T09:36:14.516Z,12.77
2022-10-10T09:39:04.659Z,11.00
2022-10-10T09:42:19.643Z,7.15
2022-10-10T09:45:24.086Z,6.22
2022-10-10T09:48:10.823Z,6.68
2022-10-10T09:50:56.444Z,7.90
2022-10-10T09:53:43.275Z,5.95
2022-10-10T09:56:36.272Z,5.45
2022-10-10T10:00:03.784Z,7.75
2022-10-10T10:03:03.567Z,5.32
2022-10-10T10:06:01.809Z,7.43
2022-10-10T10:08:52.148Z,7.88
2022-10-10T10:11:41.384Z,7.28
2022-10-10T10:14:30.716Z,7.32
2022-10-10T10:17:20.966Z,9.82
2022-10-10T10:20:28.767Z,4.88
2022-10-10T10:23:28.730Z,7.43
2022-10-10T10:26:22.025Z,7.47
2022-10-10T10:29:33.702Z,6.15
2022-10-10T10:32:40.728Z,7.00
2022-10-10T10:35:35.270Z,6.90
2022-10-10T10:38:42.953Z,9.45
2022-10-10T10:41:35.117Z,5.53
2022-10-10T10:44:57.415Z,5.90
2022-10-10T10:47:55.870Z,9.33
2022-10-10T10:51:06.958Z,8.52
2022-10-10T10:54:13.286Z,5.78
2022-10-10T10:57:11.149Z,8.77
2022-10-10T11:00:22.208Z,6.35
2022-10-10T11:05:16.126Z,7.97
2022-10-10T11:07:00.101Z,6.38
2022-10-10T11:10:18.348Z,5.05
2022-10-10T11:13:21.002Z,5.78
2022-10-10T11:19:44.351Z,5.50
2022-10-10T11:22:46.300Z,6.95
2022-10-10T11:26:08.026Z,10.13
2022-10-10T11:29:09.506Z,4.80
2022-10-10T11:32:09.241Z,6.70
2022-10-10T11:35:06.422Z,7.00
2022-10-10T11:38:18.093Z,8.30
2022-10-10T11:41:22.238Z,8.98
2022-10-10T11:44:22.887Z,6.40
2022-10-10T11:47:19.893Z,4.53
2022-10-10T11:50:37.634Z,5.30
2022-10-10T11:53:32.499Z,8.65
2022-10-10T11:56:34.315Z,9.50
2022-10-10T11:59:22.517Z,8.40
2022-10-10T12:02:44.926Z,7.40
2022-10-10T12:05:35.168Z,8.13
2022-10-10T12:08:23.302Z,10.15
2022-10-10T12:11:20.997Z,9.40
2022-10-10T12:14:09.757Z,8.77
2022-10-10T12:16:56.309Z,6.57
2022-10-10T12:19:41.364Z,6.00
2022-10-10T12:22:29.611Z,8.15
2022-10-10T12:25:24.742Z,5.60
2022-10-10T12:28:13.276Z,6.47
2022-10-10T12:31:07.314Z,7.82
2022-10-10T12:34:02.312Z,8.63
2022-10-10T12:37:10.579Z,5.95
2022-10-10T12:40:08.011Z,8.10
2022-10-10T12:42:56.393Z,7.95
2022-10-10T12:46:00.541Z,9.60
2022-10-10T12:48:56.975Z,6.50
2022-10-10T12:51:44.334Z,7.95
2022-10-10T12:54:37.034Z,5.35
2022-10-10T12:57:31.626Z,6.45
2022-10-10T13:00:21.413Z,6.55
2022-10-10T13:03:26.763Z,8.90
2022-10-10T13:06:34.839Z,5.28
2022-10-10T13:09:37.191Z,7.00
2022-10-10T13:15:20.530Z,6.35
2022-10-10T13:18:06.009Z,7.65
2022-10-10T13:20:55.393Z,11.75
2022-10-10T13:23:44.288Z,4.65
2022-10-10T13:26:43.879Z,6.28
2022-10-10T13:29:32.559Z,7.10
2022-10-10T13:32:22.413Z,5.72
2022-10-10T13:35:15.233Z,5.85
2022-10-10T13:38:01.390Z,6.47
2022-10-10T13:40:47.001Z,4.90
2022-10-10T13:43:33.249Z,4.80
2022-10-10T13:46:32.700Z,7.00
2022-10-10T13:49:27.122Z,3.72
2022-10-10T13:52:23.327Z,10.63
2022-10-10T13:55:25.831Z,6.68
2022-10-10T13:58:11.268Z,7.72
2022-10-10T14:01:02.868Z,9.32
2022-10-10T14:03:49.915Z,7.43
2022-10-10T14:06:35.807Z,9.38
2022-10-10T14:09:42.115Z,9.80
2022-10-10T14:12:39.583Z,8.25
2022-10-10T14:15:41.336Z,7.30
2022-10-10T14:18:26.659Z,7.97
2022-10-10T14:21:12.638Z,7.50
2022-10-10T14:23:58.096Z,6.82
2022-10-10T14:26:43.612Z,8.38
2022-10-10T14:29:29.687Z,8.77
2022-10-10T14:32:15.719Z,7.03
2022-10-10T14:35:01.111Z,8.18
2022-10-10T14:37:46.737Z,9.55
2022-10-10T14:40:34.947Z,13.35
2022-10-10T14:43:22.443Z,6.40
2022-10-10T14:46:17.249Z,8.90
2022-10-10T14:49:02.524Z,5.28
2022-10-10T14:51:48.347Z,6.32
2022-10-10T14:54:33.612Z,6.28
2022-10-10T14:57:19.591Z,8.32
2022-10-10T15:00:07.705Z,8.23
2022-10-10T15:02:53.404Z,8.07
2022-10-10T15:05:39.436Z,6.15
2022-10-10T15:08:24.772Z,9.52
2022-10-10T15:11:15.868Z,13.02
2022-10-10T15:14:01.232Z,10.68
2022-10-10T15:16:46.608Z,11.55
2022-10-10T15:19:31.990Z,6.90
2022-10-10T15:22:17.609Z,8.30
2022-10-10T15:25:03.179Z,8.10
2022-10-10T15:27:48.291Z,8.00
2022-10-10T15:30:33.655Z,8.82
2022-10-10T15:33:19.050Z,7.90
2022-10-10T15:36:10.047Z,8.25
2022-10-10T15:38:58.247Z,7.55
2022-10-10T15:41:43.314Z,9.38
2022-10-10T15:44:28.782Z,11.35
2022-10-10T15:47:17.139Z,9.00
2022-10-10T15:50:02.209Z,8.23
2022-10-10T15:52:48.892Z,9.25
2022-10-10T15:55:34.341Z,6.82
2022-10-10T15:58:19.623Z,7.85
2022-10-10T16:01:17.795Z,8.20
2022-10-10T16:04:04.767Z,7.35
2022-10-10T16:06:59.328Z,9.95
2022-10-10T16:09:51.007Z,7.50
2022-10-10T16:12:36.503Z,13.32
2022-10-10T16:15:22.330Z,16.40
2022-10-10T16:18:07.789Z,11.18
2022-10-10T16:20:53.333Z,11.70
2022-10-10T16:23:39.275Z,10.23
2022-10-10T16:26:29.002Z,10.70
2022-10-10T16:29:15.159Z,10.23
2022-10-10T16:32:00.479Z,7.72
2022-10-10T16:34:45.851Z,8.00
2022-10-10T16:37:31.317Z,13.50
2022-10-10T16:40:16.689Z,13.50
2022-10-10T16:43:02.647Z,12.07
2022-10-10T16:45:48.024Z,12.02
2022-10-10T16:48:36.401Z,12.77
2022-10-10T16:51:24.012Z,7.68
2022-10-10T16:54:09.051Z,8.82
2022-10-10T16:56:54.517Z,8.05
2022-10-10T16:59:40.916Z,9.95
2022-10-10T17:02:26.456Z,8.88
2022-10-10T17:05:11.820Z,7.97
2022-10-10T17:07:57.181Z,9.65
2022-10-10T17:10:44.372Z,8.88
2022-10-10T17:13:31.175Z,9.00
2022-10-10T17:16:59.802Z,8.20
2022-10-10T17:19:28.359Z,9.87
2022-10-10T17:22:13.704Z,10.32
2022-10-10T17:24:59.163Z,12.02
2022-10-10T17:27:44.769Z,12.18
2022-10-10T17:30:29.895Z,14.32
2022-10-10T17:33:17.258Z,9.38
2022-10-10T17:36:09.907Z,8.88
2022-10-10T17:38:56.383Z,7.85
2022-10-10T17:41:41.632Z,9.95
2022-10-10T17:44:27.047Z,10.55
2022-10-10T17:47:12.373Z,12.85
2022-10-10T17:49:57.766Z,13.50
2022-10-10T17:52:43.243Z,12.93
2022-10-10T17:55:28.780Z,17.52
2022-10-10T17:58:15.035Z,10.23
2022-10-10T18:01:01.961Z,12.38
2022-10-10T18:03:48.036Z,8.98
2022-10-10T18:06:36.020Z,9.27
2022-10-10T18:09:21.339Z,8.55
2022-10-10T18:12:07.641Z,11.43
2022-10-10T18:14:52.670Z,10.02
2022-10-10T18:17:38.043Z,8.68
2022-10-10T18:20:23.621Z,12.13
2022-10-10T18:23:08.991Z,7.35
2022-10-10T18:26:17.032Z,9.07
2022-10-10T18:29:02.154Z,10.70
2022-10-10T18:31:47.733Z,9.13
2022-10-10T18:34:33.311Z,13.35
2022-10-10T18:37:18.702Z,8.75
2022-10-10T18:40:04.779Z,8.38
2022-10-10T18:42:49.906Z,9.32
2022-10-10T18:45:35.163Z,12.38
2022-10-10T18:48:20.571Z,11.15
2022-10-10T18:51:08.144Z,9.88
2022-10-10T18:53:58.529Z,10.10
2022-10-10T18:56:45.202Z,10.35
2022-10-10T18:59:32.129Z,9.23
2022-10-10T19:02:17.302Z,9.40
2022-10-10T19:05:02.691Z,7.65
2022-10-10T19:07:48.302Z,8.18
2022-10-10T19:10:33.679Z,18.17
2022-10-10T19:13:19.989Z,8.82
2022-10-10T19:16:07.185Z,11.05
2022-10-10T19:18:56.295Z,7.72
2022-10-10T19:21:45.979Z,9.90
2022-10-10T19:24:31.197Z,12.30
2022-10-10T19:27:16.623Z,10.68
2022-10-10T19:30:01.888Z,8.60
2022-10-10T19:35:47.103Z,13.18
2022-10-10T19:38:37.269Z,12.25
2022-10-10T19:41:22.956Z,8.32
2022-10-10T19:44:08.887Z,10.68
2022-10-10T19:46:54.600Z,8.93
2022-10-10T19:49:40.044Z,12.88
2022-10-10T19:52:25.199Z,8.02
2022-10-10T19:55:10.899Z,9.02
2022-10-10T19:57:56.265Z,8.90
2022-10-10T20:00:41.710Z,10.23
2022-10-10T20:03:27.472Z,11.45
2022-10-10T20:06:13.514Z,9.93
2022-10-10T20:08:58.718Z,10.27
2022-10-10T20:11:44.058Z,9.80
2022-10-10T20:14:29.462Z,11.75
2022-10-10T20:17:15.205Z,9.75
2022-10-10T20:20:00.546Z,11.85
2022-10-10T20:22:45.978Z,11.07
2022-10-10T20:25:31.398Z,11.60
2022-10-10T20:28:17.836Z,11.70
2022-10-10T20:31:03.837Z,9.75
2022-10-10T20:33:52.561Z,10.95
2022-10-10T20:36:39.271Z,9.07
2022-10-10T20:39:24.646Z,10.90
2022-10-10T20:42:10.152Z,8.90
2022-10-10T20:44:55.859Z,13.32
2022-10-10T20:47:41.417Z,12.98
2022-10-10T20:50:26.951Z,11.40
2022-10-10T20:53:13.167Z,12.15
2022-10-10T20:56:02.337Z,14.20
2022-10-10T20:58:47.884Z,9.52
2022-10-10T21:01:34.368Z,15.40
2022-10-10T21:04:19.991Z,13.40
2022-10-10T21:07:05.786Z,15.55
2022-10-10T21:09:51.265Z,10.68
2022-10-10T21:12:36.718Z,9.23
2022-10-10T21:15:22.606Z,9.48
2022-10-10T21:18:08.391Z,10.32
2022-10-10T21:21:04.884Z,12.45
2022-10-10T21:23:52.739Z,10.27
2022-10-10T21:26:43.345Z,10.13
2022-10-10T21:29:28.662Z,15.15
2022-10-10T21:32:14.015Z,12.57
2022-10-10T21:34:59.362Z,7.65
2022-10-10T21:37:45.473Z,12.27
2022-10-10T21:40:30.519Z,11.75
2022-10-10T21:43:16.839Z,8.35
2022-10-10T21:46:03.900Z,12.10
2022-10-10T21:48:50.507Z,11.55
2022-10-10T21:51:41.734Z,11.40
2022-10-10T21:54:27.077Z,9.73
2022-10-10T21:57:12.205Z,9.48
2022-10-10T21:59:57.559Z,15.68
2022-10-10T22:02:42.916Z,10.93
2022-10-10T22:05:28.318Z,9.80
2022-10-10T22:08:13.748Z,9.82
2022-10-10T22:11:08.679Z,8.82
2022-10-10T22:13:53.725Z,9.90
2022-10-10T22:16:39.200Z,9.80
2022-10-10T22:19:24.621Z,11.95
2022-10-10T22:22:09.918Z,11.00
2022-10-10T22:24:55.320Z,10.07
2022-10-10T22:27:41.538Z,9.52
2022-10-10T22:30:26.929Z,9.73
2022-10-10T22:33:12.548Z,10.23
2022-10-10T22:35:58.036Z,12.57
2022-10-10T22:38:44.853Z,11.50
2022-10-10T22:41:29.859Z,12.32
2022-10-10T22:44:16.496Z,9.38
2022-10-10T22:47:01.791Z,9.98
2022-10-10T22:49:47.039Z,9.20
2022-10-10T22:52:32.514Z,8.20
2022-10-10T22:55:18.931Z,11.80
2022-10-10T22:58:04.324Z,13.65
2022-10-10T23:00:50.958Z,11.15
2022-10-10T23:03:36.586Z,10.23
2022-10-10T23:06:21.767Z,9.48
2022-10-10T23:09:07.619Z,10.40
2022-10-10T23:11:52.631Z,12.05
2022-10-10T23:14:38.053Z,10.13
2022-10-10T23:17:23.390Z,12.90
2022-10-10T23:20:09.703Z,12.20
2022-10-10T23:22:55.236Z,10.18
2022-10-10T23:25:41.575Z,15.82
2022-10-10T23:28:27.146Z,11.50
2022-10-10T23:31:14.268Z,11.55
2022-10-10T23:33:59.382Z,15.52
2022-10-10T23:36:44.740Z,12.65
2022-10-10T23:39:30.036Z,12.10
2022-10-10T23:42:15.520Z,11.38
2022-10-10T23:45:00.869Z,12.45
2022-10-10T23:47:46.124Z,10.75
2022-10-10T23:50:31.410Z,15.70
2022-10-10T23:53:16.715Z,12.02
2022-10-10T23:56:02.608Z,12.18
2022-10-10T23:58:48.019Z,12.48
